createdAt,value
2018-12-04T00:00:40.739Z,17.97
2018-12-04T00:01:40.956Z,17.97
2018-12-04T00:02:40.830Z,17.96
2018-12-04T00:03:41.124Z,17.96
2018-12-04T00:04:40.692Z,17.96
2018-12-04T00:05:40.848Z,17.96
2018-12-04T00:06:40.762Z,17.96
2018-12-04T00:07:40.884Z,17.96
2018-12-04T00:08:40.981Z,17.96
2018-12-04T00:09:41.862Z,17.95
2018-12-04T00:10:40.974Z,17.95
2018-12-04T00:11:40.802Z,17.95
2018-12-04T00:12:41.044Z,17.95
2018-12-04T00:13:40.785Z,17.95
2018-12-04T00:14:40.814Z,17.94
2018-12-04T00:15:40.693Z,17.94
2018-12-04T00:16:41.133Z,17.95
2018-12-04T00:17:41.040Z,17.94
2018-12-04T00:18:41.124Z,17.94
2018-12-04T00:19:41.187Z,17.94
2018-12-04T00:20:41.139Z,17.93
2018-12-04T00:21:41.040Z,17.93
2018-12-04T00:22:40.863Z,17.93
2018-12-04T00:23:40.648Z,17.92
2018-12-04T00:24:40.715Z,17.92
2018-12-04T00:25:40.783Z,17.92
2018-12-04T00:26:41.123Z,17.92
2018-12-04T00:27:40.862Z,17.92
2018-12-04T00:28:40.992Z,17.93
2018-12-04T00:29:41.160Z,17.92
2018-12-04T00:30:41.787Z,17.92
2018-12-04T00:31:41.052Z,17.92
2018-12-04T00:32:40.874Z,17.92
2018-12-04T00:33:40.984Z,17.92
2018-12-04T00:34:41.182Z,17.91
2018-12-04T00:35:40.860Z,17.92
2018-12-04T00:36:40.765Z,17.92
2018-12-04T00:37:41.185Z,17.91
2018-12-04T00:38:40.732Z,17.91
2018-12-04T00:39:41.114Z,17.9
2018-12-04T00:40:41.230Z,17.9
2018-12-04T00:41:40.872Z,17.91
2018-12-04T00:42:40.719Z,17.9
2018-12-04T00:43:40.748Z,17.9
2018-12-04T00:44:40.908Z,17.9
2018-12-04T00:45:41.086Z,17.89
2018-12-04T00:46:41.133Z,17.89
2018-12-04T00:47:41.395Z,17.9
2018-12-04T00:48:41.139Z,17.89
2018-12-04T00:49:40.766Z,17.89
2018-12-04T00:50:40.784Z,17.89
2018-12-04T00:51:41.058Z,17.88
2018-12-04T00:52:40.914Z,17.89
2018-12-04T00:53:41.165Z,17.88
2018-12-04T00:54:41.050Z,17.88
2018-12-04T00:55:41.118Z,17.88
2018-12-04T00:56:40.760Z,17.88
2018-12-04T00:57:41.241Z,17.87
2018-12-04T00:58:41.162Z,17.88
2018-12-04T00:59:40.677Z,17.88
2018-12-04T01:00:41.526Z,17.87
2018-12-04T01:01:40.782Z,17.87
2018-12-04T01:02:41.210Z,17.87
2018-12-04T01:03:40.756Z,17.87
2018-12-04T01:04:41.099Z,17.86
2018-12-04T01:05:40.784Z,17.86
2018-12-04T01:06:41.129Z,17.86
2018-12-04T01:07:41.443Z,17.87
2018-12-04T01:08:41.166Z,17.86
2018-12-04T01:09:40.816Z,17.86
2018-12-04T01:10:40.789Z,17.86
2018-12-04T01:11:40.938Z,17.86
2018-12-04T01:12:40.937Z,17.86
2018-12-04T01:13:41.399Z,17.86
2018-12-04T01:14:40.955Z,17.86
2018-12-04T01:15:40.987Z,17.86
2018-12-04T01:16:40.797Z,17.86
2018-12-04T01:17:41.111Z,17.86
2018-12-04T01:18:41.457Z,17.86
2018-12-04T01:19:41.136Z,17.85
2018-12-04T01:20:40.860Z,17.86
2018-12-04T01:21:41.130Z,17.85
2018-12-04T01:22:40.829Z,17.85
2018-12-04T01:23:40.969Z,17.85
2018-12-04T01:24:41.439Z,17.85
2018-12-04T01:25:41.162Z,17.85
2018-12-04T01:26:40.886Z,17.84
2018-12-04T01:27:41.071Z,17.84
2018-12-04T01:28:40.898Z,17.84
2018-12-04T01:29:41.189Z,17.83
2018-12-04T01:30:41.050Z,17.84
2018-12-04T01:31:41.612Z,17.83
2018-12-04T01:32:40.743Z,17.84
2018-12-04T01:33:41.011Z,17.83
2018-12-04T01:34:41.044Z,17.84
2018-12-04T01:35:40.862Z,17.83
2018-12-04T01:36:40.930Z,17.83
2018-12-04T01:37:40.721Z,17.83
2018-12-04T01:38:40.942Z,17.83
2018-12-04T01:39:40.739Z,17.83
2018-12-04T01:40:41.161Z,17.82
2018-12-04T01:41:40.693Z,17.82
2018-12-04T01:42:40.814Z,17.82
2018-12-04T01:43:40.885Z,17.81
2018-12-04T01:44:40.725Z,17.81
2018-12-04T01:45:40.723Z,17.82
2018-12-04T01:46:40.816Z,17.81
2018-12-04T01:47:40.901Z,17.81
2018-12-04T01:48:40.755Z,17.81
2018-12-04T01:49:40.838Z,17.8
2018-12-04T01:50:40.734Z,17.81
2018-12-04T01:51:40.868Z,17.81
2018-12-04T01:52:41.013Z,17.81
2018-12-04T01:53:40.741Z,17.81
2018-12-04T01:54:40.834Z,17.81
2018-12-04T01:55:40.689Z,17.81
2018-12-04T01:56:40.905Z,17.81
2018-12-04T01:57:41.160Z,17.81
2018-12-04T01:58:40.908Z,17.82
2018-12-04T01:59:40.987Z,17.8
2018-12-04T02:00:41.093Z,17.81
2018-12-04T02:01:40.851Z,17.8
2018-12-04T02:02:40.729Z,17.8
2018-12-04T02:03:40.957Z,17.8
2018-12-04T02:04:40.716Z,17.79
2018-12-04T02:05:40.815Z,17.8
2018-12-04T02:06:41.008Z,17.79
2018-12-04T02:07:40.752Z,17.79
2018-12-04T02:08:41.258Z,17.79
2018-12-04T02:09:40.939Z,17.79
2018-12-04T02:10:40.617Z,17.79
2018-12-04T02:11:40.979Z,17.79
2018-12-04T02:12:40.969Z,17.79
2018-12-04T02:13:41.043Z,17.79
2018-12-04T02:14:41.091Z,17.79
2018-12-04T02:15:41.085Z,17.78
2018-12-04T02:16:41.208Z,17.79
2018-12-04T02:17:41.128Z,17.79
2018-12-04T02:18:40.908Z,17.79
2018-12-04T02:19:40.826Z,17.79
2018-12-04T02:20:40.834Z,17.78
2018-12-04T02:21:41.349Z,17.78
2018-12-04T02:22:40.973Z,17.77
2018-12-04T02:23:40.820Z,17.77
2018-12-04T02:24:41.087Z,17.78
2018-12-04T02:25:41.296Z,17.77
2018-12-04T02:26:41.608Z,17.77
2018-12-04T02:27:40.703Z,17.78
2018-12-04T02:28:40.867Z,17.76
2018-12-04T02:29:41.535Z,17.77
2018-12-04T02:30:40.919Z,17.76
2018-12-04T02:31:40.715Z,17.77
2018-12-04T02:32:41.414Z,17.77
2018-12-04T02:33:40.728Z,17.76
2018-12-04T02:34:41.026Z,17.76
2018-12-04T02:35:40.993Z,17.76
2018-12-04T02:36:41.303Z,17.75
2018-12-04T02:37:40.886Z,17.75
2018-12-04T02:38:41.976Z,17.76
2018-12-04T02:39:40.971Z,17.76
2018-12-04T02:40:41.006Z,17.76
2018-12-04T02:41:40.985Z,17.75
2018-12-04T02:42:40.910Z,17.76
2018-12-04T02:43:40.857Z,17.75
2018-12-04T02:44:40.625Z,17.75
2018-12-04T02:45:41.011Z,17.74
2018-12-04T02:46:40.595Z,17.75
2018-12-04T02:47:40.759Z,17.75
2018-12-04T02:48:40.832Z,17.75
2018-12-04T02:49:41.043Z,17.75
2018-12-04T02:50:41.060Z,17.74
2018-12-04T02:51:41.046Z,17.75
2018-12-04T02:52:40.912Z,17.74
2018-12-04T02:53:40.741Z,17.74
2018-12-04T02:54:41.225Z,17.74
2018-12-04T02:55:40.821Z,17.73
2018-12-04T02:56:40.766Z,17.73
2018-12-04T02:57:41.882Z,17.74
2018-12-04T02:58:40.832Z,17.74
2018-12-04T02:59:40.784Z,17.74
2018-12-04T03:00:40.823Z,17.74
2018-12-04T03:01:40.937Z,17.74
2018-12-04T03:02:40.846Z,17.73
2018-12-04T03:03:40.721Z,17.73
2018-12-04T03:04:40.747Z,17.73
2018-12-04T03:05:40.638Z,17.73
2018-12-04T03:06:40.752Z,17.73
2018-12-04T03:07:41.109Z,17.73
2018-12-04T03:08:40.931Z,17.73
2018-12-04T03:09:40.982Z,17.73
2018-12-04T03:10:40.848Z,17.73
2018-12-04T03:11:40.684Z,17.73
2018-12-04T03:12:40.876Z,17.73
2018-12-04T03:13:40.938Z,17.73
2018-12-04T03:14:40.911Z,17.73
2018-12-04T03:15:40.837Z,17.72
2018-12-04T03:16:40.777Z,17.73
2018-12-04T03:17:40.825Z,17.72
2018-12-04T03:18:40.923Z,17.72
2018-12-04T03:19:40.983Z,17.72
2018-12-04T03:20:41.046Z,17.72
2018-12-04T03:21:40.748Z,17.72
2018-12-04T03:22:40.771Z,17.72
2018-12-04T03:23:40.762Z,17.72
2018-12-04T03:24:40.713Z,17.71
2018-12-04T03:25:40.689Z,17.72
2018-12-04T03:26:40.714Z,17.72
2018-12-04T03:27:40.882Z,17.72
2018-12-04T03:28:40.793Z,17.71
2018-12-04T03:29:40.766Z,17.71
2018-12-04T03:30:40.874Z,17.71
2018-12-04T03:31:40.726Z,17.72
2018-12-04T03:32:40.705Z,17.72
2018-12-04T03:33:40.851Z,17.72
2018-12-04T03:34:40.725Z,17.71
2018-12-04T03:35:41.071Z,17.7
2018-12-04T03:36:41.152Z,17.7
2018-12-04T03:37:40.808Z,17.7
2018-12-04T03:38:40.744Z,17.71
2018-12-04T03:39:40.797Z,17.7
2018-12-04T03:40:40.901Z,17.7
2018-12-04T03:41:41.262Z,17.71
2018-12-04T03:42:40.908Z,17.7
2018-12-04T03:43:40.750Z,17.7
2018-12-04T03:44:40.696Z,17.7
2018-12-04T03:45:40.715Z,17.69
2018-12-04T03:46:40.862Z,17.69
2018-12-04T03:47:40.831Z,17.7
2018-12-04T03:48:40.834Z,17.69
2018-12-04T03:49:40.767Z,17.68
2018-12-04T03:50:40.873Z,17.69
2018-12-04T03:51:40.766Z,17.69
2018-12-04T03:52:41.047Z,17.69
2018-12-04T03:53:40.634Z,17.69
2018-12-04T03:54:41.753Z,17.69
2018-12-04T03:55:40.977Z,17.68
2018-12-04T03:56:41.058Z,17.68
2018-12-04T03:57:40.781Z,17.68
2018-12-04T03:58:41.165Z,17.68
2018-12-04T03:59:40.866Z,17.68
2018-12-04T04:00:41.140Z,17.67
2018-12-04T04:01:40.845Z,17.69
2018-12-04T04:02:40.694Z,17.67
2018-12-04T04:03:40.740Z,17.67
2018-12-04T04:04:41.006Z,17.67
2018-12-04T04:05:40.781Z,17.67
2018-12-04T04:06:41.676Z,17.67
2018-12-04T04:07:41.013Z,17.67
2018-12-04T04:08:40.787Z,17.67
2018-12-04T04:09:40.692Z,17.67
2018-12-04T04:10:40.764Z,17.67
2018-12-04T04:11:41.204Z,17.67
2018-12-04T04:12:41.643Z,17.67
2018-12-04T04:13:40.906Z,17.67
2018-12-04T04:14:40.921Z,17.67
2018-12-04T04:15:41.350Z,17.67
2018-12-04T04:16:40.851Z,17.66
2018-12-04T04:17:40.513Z,17.67
2018-12-04T04:18:41.565Z,17.66
2018-12-04T04:19:41.209Z,17.65
2018-12-04T04:20:40.729Z,17.66
2018-12-04T04:21:40.964Z,17.67
2018-12-04T04:22:40.880Z,17.66
2018-12-04T04:23:40.878Z,17.66
2018-12-04T04:24:40.899Z,17.65
2018-12-04T04:25:40.747Z,17.66
2018-12-04T04:26:40.729Z,17.66
2018-12-04T04:27:40.946Z,17.66
2018-12-04T04:28:41.013Z,17.65
2018-12-04T04:29:40.631Z,17.66
2018-12-04T04:30:41.050Z,17.66
2018-12-04T04:31:40.957Z,17.66
2018-12-04T04:32:40.689Z,17.66
2018-12-04T04:33:40.758Z,17.66
2018-12-04T04:34:40.657Z,17.66
2018-12-04T04:35:40.792Z,17.65
2018-12-04T04:36:40.639Z,17.65
2018-12-04T04:37:40.826Z,17.66
2018-12-04T04:38:40.875Z,17.67
2018-12-04T04:39:40.909Z,17.66
2018-12-04T04:40:41.150Z,17.67
2018-12-04T04:41:40.913Z,17.67
2018-12-04T04:42:40.864Z,17.67
2018-12-04T04:43:40.712Z,17.67
2018-12-04T04:44:40.571Z,17.67
2018-12-04T04:45:40.987Z,17.67
2018-12-04T04:46:40.762Z,17.68
2018-12-04T04:47:40.796Z,17.68
2018-12-04T04:48:40.791Z,17.7
2018-12-04T04:49:40.889Z,17.71
2018-12-04T04:50:40.775Z,17.72
2018-12-04T04:51:40.762Z,17.72
2018-12-04T04:52:40.629Z,17.73
2018-12-04T04:53:40.516Z,17.73
2018-12-04T04:54:40.719Z,17.73
2018-12-04T04:55:41.024Z,17.74
2018-12-04T04:56:40.488Z,17.76
2018-12-04T04:57:40.804Z,17.77
2018-12-04T04:58:40.842Z,17.78
2018-12-04T04:59:40.891Z,17.79
2018-12-04T05:00:40.790Z,17.8
2018-12-04T05:01:40.718Z,17.81
2018-12-04T05:02:40.693Z,17.83
2018-12-04T05:03:40.683Z,17.83
2018-12-04T05:04:40.755Z,17.85
2018-12-04T05:05:40.695Z,17.86
2018-12-04T05:06:40.727Z,17.87
2018-12-04T05:07:41.001Z,17.89
2018-12-04T05:08:40.921Z,17.91
2018-12-04T05:09:40.710Z,17.92
2018-12-04T05:10:40.723Z,17.93
2018-12-04T05:11:40.788Z,17.95
2018-12-04T05:12:41.074Z,17.97
2018-12-04T05:13:40.661Z,17.98
2018-12-04T05:14:40.878Z,17.99
2018-12-04T05:15:40.950Z,18.01
2018-12-04T05:16:40.961Z,18.03
2018-12-04T05:17:40.594Z,18.04
2018-12-04T05:18:40.817Z,18.04
2018-12-04T05:19:41.008Z,18.06
2018-12-04T05:20:41.102Z,18.07
2018-12-04T05:21:40.862Z,18.09
2018-12-04T05:22:40.836Z,18.1
2018-12-04T05:23:41.119Z,18.1
2018-12-04T05:24:40.726Z,18.13
2018-12-04T05:25:40.963Z,18.14
2018-12-04T05:26:40.908Z,18.15
2018-12-04T05:27:41.057Z,18.16
2018-12-04T05:28:40.950Z,18.17
2018-12-04T05:29:40.846Z,18.17
2018-12-04T05:30:40.905Z,18.18
2018-12-04T05:31:41.018Z,18.19
2018-12-04T05:32:40.801Z,18.19
2018-12-04T05:33:40.691Z,18.2
2018-12-04T05:34:40.933Z,18.21
2018-12-04T05:35:41.158Z,18.21
2018-12-04T05:36:40.770Z,18.22
2018-12-04T05:37:40.999Z,18.23
2018-12-04T05:38:40.760Z,18.23
2018-12-04T05:39:41.013Z,18.23
2018-12-04T05:40:40.616Z,18.24
2018-12-04T05:41:40.986Z,18.24
2018-12-04T05:42:41.042Z,18.24
2018-12-04T05:43:41.160Z,18.25
2018-12-04T05:44:40.646Z,18.25
2018-12-04T05:45:40.958Z,18.26
2018-12-04T05:46:40.532Z,18.25
2018-12-04T05:47:40.545Z,18.26
2018-12-04T05:48:40.759Z,18.26
2018-12-04T05:49:40.849Z,18.27
2018-12-04T05:50:40.897Z,18.27
2018-12-04T05:51:41.122Z,18.27
2018-12-04T05:52:40.810Z,18.28
2018-12-04T05:53:40.724Z,18.27
2018-12-04T05:54:40.963Z,18.28
2018-12-04T05:55:40.945Z,18.28
2018-12-04T05:56:40.522Z,18.28
2018-12-04T05:57:40.877Z,18.27
2018-12-04T05:58:41.242Z,18.28
2018-12-04T05:59:40.713Z,18.28
2018-12-04T06:00:40.878Z,18.27
2018-12-04T06:01:41.139Z,18.27
2018-12-04T06:02:40.734Z,18.27
2018-12-04T06:03:41.084Z,18.27
2018-12-04T06:04:40.788Z,18.28
2018-12-04T06:05:40.813Z,18.27
2018-12-04T06:06:40.852Z,18.27
2018-12-04T06:07:40.604Z,18.27
2018-12-04T06:08:40.764Z,18.27
2018-12-04T06:09:41.185Z,18.27
2018-12-04T06:10:40.699Z,18.27
2018-12-04T06:11:40.850Z,18.27
2018-12-04T06:12:40.989Z,18.27
2018-12-04T06:13:40.779Z,18.27
2018-12-04T06:14:40.614Z,18.27
2018-12-04T06:15:40.973Z,18.27
2018-12-04T06:16:41.180Z,18.27
2018-12-04T06:17:41.205Z,18.27
2018-12-04T06:18:41.031Z,18.27
2018-12-04T06:19:40.709Z,18.27
2018-12-04T06:20:40.567Z,18.26
2018-12-04T06:21:40.682Z,18.26
2018-12-04T06:22:40.828Z,18.27
2018-12-04T06:23:41.132Z,18.27
2018-12-04T06:24:41.032Z,18.26
2018-12-04T06:25:40.668Z,18.26
2018-12-04T06:26:41.022Z,18.26
2018-12-04T06:27:40.755Z,18.26
2018-12-04T06:28:40.660Z,18.26
2018-12-04T06:29:40.695Z,18.26
2018-12-04T06:30:40.776Z,18.25
2018-12-04T06:31:40.811Z,18.25
2018-12-04T06:32:40.575Z,18.25
2018-12-04T06:33:40.530Z,18.25
2018-12-04T06:34:40.829Z,18.24
2018-12-04T06:35:40.730Z,18.24
2018-12-04T06:36:40.819Z,18.24
2018-12-04T06:37:40.801Z,18.24
2018-12-04T06:38:40.677Z,18.23
2018-12-04T06:39:40.695Z,18.24
2018-12-04T06:40:40.757Z,18.23
2018-12-04T06:41:40.751Z,18.23
2018-12-04T06:42:40.769Z,18.23
2018-12-04T06:43:40.744Z,18.23
2018-12-04T06:44:40.690Z,18.23
2018-12-04T06:45:40.706Z,18.23
2018-12-04T06:46:40.801Z,18.23
2018-12-04T06:47:40.743Z,18.23
2018-12-04T06:48:40.895Z,18.23
2018-12-04T06:49:40.706Z,18.23
2018-12-04T06:50:41.039Z,18.22
2018-12-04T06:51:40.703Z,18.23
2018-12-04T06:52:41.042Z,18.23
2018-12-04T06:53:41.109Z,18.23
2018-12-04T06:54:40.758Z,18.22
2018-12-04T06:55:41.104Z,18.21
2018-12-04T06:56:40.691Z,18.21
2018-12-04T06:57:41.065Z,18.22
2018-12-04T06:58:40.985Z,18.22
2018-12-04T06:59:40.424Z,18.21
2018-12-04T07:00:40.813Z,18.22
2018-12-04T07:01:40.885Z,18.21
2018-12-04T07:02:40.819Z,18.21
2018-12-04T07:03:41.009Z,18.21
2018-12-04T07:04:40.816Z,18.21
2018-12-04T07:05:40.903Z,18.2
2018-12-04T07:06:40.793Z,18.21
2018-12-04T07:07:40.751Z,18.19
2018-12-04T07:08:40.981Z,18.2
2018-12-04T07:09:40.742Z,18.19
2018-12-04T07:10:40.691Z,18.19
2018-12-04T07:11:40.493Z,18.19
2018-12-04T07:12:41.062Z,18.19
2018-12-04T07:13:41.303Z,18.19
2018-12-04T07:14:40.902Z,18.18
2018-12-04T07:15:40.700Z,18.19
2018-12-04T07:16:40.584Z,18.18
2018-12-04T07:17:41.232Z,18.18
2018-12-04T07:18:40.821Z,18.18
2018-12-04T07:19:40.651Z,18.18
2018-12-04T07:20:41.423Z,18.18
2018-12-04T07:21:41.507Z,18.18
2018-12-04T07:22:40.910Z,18.17
2018-12-04T07:23:41.151Z,18.17
2018-12-04T07:24:40.950Z,18.17
2018-12-04T07:25:40.609Z,18.17
2018-12-04T07:26:40.653Z,18.17
2018-12-04T07:27:40.767Z,18.17
2018-12-04T07:28:40.999Z,18.17
2018-12-04T07:29:40.853Z,18.17
2018-12-04T07:30:41.141Z,18.17
2018-12-04T07:31:40.917Z,18.17
2018-12-04T07:32:40.684Z,18.17
2018-12-04T07:33:40.830Z,18.17
2018-12-04T07:34:40.751Z,18.17
2018-12-04T07:35:40.954Z,18.17
2018-12-04T07:36:40.852Z,18.17
2018-12-04T07:37:40.560Z,18.17
2018-12-04T07:38:40.854Z,18.17
2018-12-04T07:39:41.080Z,18.17
2018-12-04T07:40:40.696Z,18.17
2018-12-04T07:41:40.985Z,18.17
2018-12-04T07:42:40.911Z,18.17
2018-12-04T07:43:40.837Z,18.17
2018-12-04T07:44:40.506Z,18.17
2018-12-04T07:45:41.179Z,18.17
2018-12-04T07:46:40.919Z,18.17
2018-12-04T07:47:41.026Z,18.17
2018-12-04T07:48:40.723Z,18.17
2018-12-04T07:49:40.962Z,18.17
2018-12-04T07:50:41.045Z,18.18
2018-12-04T07:51:41.054Z,18.18
2018-12-04T07:52:40.675Z,18.18
2018-12-04T07:53:40.705Z,18.19
2018-12-04T07:54:40.669Z,18.19
2018-12-04T07:55:40.600Z,18.19
2018-12-04T07:56:40.552Z,18.19
2018-12-04T07:57:40.639Z,18.19
2018-12-04T07:58:41.022Z,18.2
2018-12-04T07:59:40.756Z,18.2
2018-12-04T08:00:40.718Z,18.21
2018-12-04T08:01:41.015Z,18.2
2018-12-04T08:02:40.701Z,18.21
2018-12-04T08:03:40.700Z,18.21
2018-12-04T08:04:41.266Z,18.22
2018-12-04T08:05:40.901Z,18.22
2018-12-04T08:06:40.709Z,18.22
2018-12-04T08:07:40.696Z,18.22
2018-12-04T08:08:40.711Z,18.22
2018-12-04T08:09:40.685Z,18.22
2018-12-04T08:10:40.686Z,18.23
2018-12-04T08:11:40.734Z,18.22
2018-12-04T08:12:41.008Z,18.23
2018-12-04T08:13:40.609Z,18.23
2018-12-04T08:14:41.063Z,18.23
2018-12-04T08:15:40.659Z,18.22
2018-12-04T08:16:40.491Z,18.23
2018-12-04T08:17:40.857Z,18.23
2018-12-04T08:18:40.399Z,18.23
2018-12-04T08:19:40.759Z,18.23
2018-12-04T08:20:40.821Z,18.23
2018-12-04T08:21:40.856Z,18.23
2018-12-04T08:22:40.473Z,18.23
2018-12-04T08:23:40.703Z,18.23
2018-12-04T08:24:40.709Z,18.23
2018-12-04T08:25:40.462Z,18.23
2018-12-04T08:26:41.190Z,18.24
2018-12-04T08:27:40.972Z,18.24
2018-12-04T08:28:41.415Z,18.24
2018-12-04T08:29:40.824Z,18.24
2018-12-04T08:30:40.728Z,18.24
2018-12-04T08:31:40.774Z,18.24
2018-12-04T08:32:40.644Z,18.23
2018-12-04T08:33:40.795Z,18.24
2018-12-04T08:34:40.755Z,18.24
2018-12-04T08:35:40.687Z,18.24
2018-12-04T08:36:40.719Z,18.23
2018-12-04T08:37:41.002Z,18.24
2018-12-04T08:38:41.395Z,18.24
2018-12-04T08:39:40.895Z,18.24
2018-12-04T08:40:40.428Z,18.24
2018-12-04T08:41:40.924Z,18.24
2018-12-04T08:42:41.047Z,18.24
2018-12-04T08:43:40.811Z,18.24
2018-12-04T08:44:41.606Z,18.24
2018-12-04T08:45:40.483Z,18.24
2018-12-04T08:46:41.137Z,18.24
2018-12-04T08:47:40.971Z,18.24
2018-12-04T08:48:40.673Z,18.24
2018-12-04T08:49:40.780Z,18.24
2018-12-04T08:50:40.847Z,18.24
2018-12-04T08:51:40.676Z,18.24
2018-12-04T08:52:40.780Z,18.24
2018-12-04T08:53:40.776Z,18.24
2018-12-04T08:54:40.922Z,18.25
2018-12-04T08:55:40.825Z,18.24
2018-12-04T08:56:40.686Z,18.24
2018-12-04T08:57:41.115Z,18.24
2018-12-04T08:58:40.396Z,18.24
2018-12-04T08:59:40.689Z,18.24
2018-12-04T09:00:40.932Z,18.24
2018-12-04T09:01:40.468Z,18.24
2018-12-04T09:02:40.674Z,18.24
2018-12-04T09:03:40.763Z,18.24
2018-12-04T09:04:40.525Z,18.23
2018-12-04T09:05:41.244Z,18.24
2018-12-04T09:06:40.973Z,18.23
2018-12-04T09:07:40.488Z,18.23
2018-12-04T09:08:41.007Z,18.23
2018-12-04T09:09:40.701Z,18.23
2018-12-04T09:10:40.895Z,18.23
2018-12-04T09:11:40.818Z,18.23
2018-12-04T09:12:40.461Z,18.23
2018-12-04T09:13:40.616Z,18.23
2018-12-04T09:14:40.534Z,18.22
2018-12-04T09:15:41.258Z,18.22
2018-12-04T09:16:40.523Z,18.23
2018-12-04T09:17:40.968Z,18.22
2018-12-04T09:18:41.596Z,18.22
2018-12-04T09:19:40.700Z,18.23
2018-12-04T09:20:41.295Z,18.23
2018-12-04T09:21:41.060Z,18.22
2018-12-04T09:22:40.802Z,18.23
2018-12-04T09:23:41.174Z,18.22
2018-12-04T09:24:41.191Z,18.23
2018-12-04T09:25:40.985Z,18.21
2018-12-04T09:26:40.879Z,18.22
2018-12-04T09:27:41.350Z,18.22
2018-12-04T09:28:41.066Z,18.21
2018-12-04T09:29:41.459Z,18.21
2018-12-04T09:30:40.998Z,18.21
2018-12-04T09:31:40.968Z,18.21
2018-12-04T09:32:40.793Z,18.21
2018-12-04T09:33:41.424Z,18.22
2018-12-04T09:34:40.495Z,18.21
2018-12-04T09:35:40.868Z,18.21
2018-12-04T09:36:40.771Z,18.21
2018-12-04T09:37:41.005Z,18.21
2018-12-04T09:38:40.962Z,18.21
2018-12-04T09:39:40.711Z,18.21
2018-12-04T09:40:40.841Z,18.21
2018-12-04T09:41:41.284Z,18.21
2018-12-04T09:42:40.869Z,18.21
2018-12-04T09:43:40.448Z,18.21
2018-12-04T09:44:40.743Z,18.2
2018-12-04T09:45:40.766Z,18.2
2018-12-04T09:46:40.691Z,18.21
2018-12-04T09:47:40.449Z,18.21
2018-12-04T09:48:40.692Z,18.2
2018-12-04T09:49:40.495Z,18.2
2018-12-04T09:50:40.802Z,18.2
2018-12-04T09:51:40.498Z,18.2
2018-12-04T09:52:40.492Z,18.2
2018-12-04T09:53:40.743Z,18.2
2018-12-04T09:54:40.760Z,18.19
2018-12-04T09:55:40.677Z,18.2
2018-12-04T09:56:40.815Z,18.19
2018-12-04T09:57:40.695Z,18.19
2018-12-04T09:58:40.426Z,18.19
2018-12-04T09:59:40.971Z,18.19
2018-12-04T10:00:40.666Z,18.19
2018-12-04T10:01:40.529Z,18.19
2018-12-04T10:02:40.754Z,18.18
2018-12-04T10:03:40.781Z,18.18
2018-12-04T10:04:40.906Z,18.18
2018-12-04T10:05:40.492Z,18.18
2018-12-04T10:06:40.817Z,18.18
2018-12-04T10:07:40.519Z,18.18
2018-12-04T10:08:40.840Z,18.18
2018-12-04T10:09:40.761Z,18.17
2018-12-04T10:10:40.532Z,18.18
2018-12-04T10:11:40.841Z,18.18
2018-12-04T10:12:40.785Z,18.17
2018-12-04T10:13:40.702Z,18.17
2018-12-04T10:14:40.537Z,18.17
2018-12-04T10:15:41.028Z,18.17
2018-12-04T10:16:43.514Z,18.17
2018-12-04T10:17:40.756Z,18.17
2018-12-04T10:18:40.953Z,18.17
2018-12-04T10:19:40.902Z,18.18
2018-12-04T10:20:40.673Z,18.18
2018-12-04T10:21:40.637Z,18.18
2018-12-04T10:22:40.849Z,18.19
2018-12-04T10:23:40.691Z,18.18
2018-12-04T10:24:40.636Z,18.18
2018-12-04T10:25:41.356Z,18.17
2018-12-04T10:26:40.782Z,18.18
2018-12-04T10:27:40.865Z,18.17
2018-12-04T10:28:41.509Z,18.17
2018-12-04T10:29:40.918Z,18.17
2018-12-04T10:30:40.817Z,18.17
2018-12-04T10:31:40.591Z,18.17
2018-12-04T10:32:40.731Z,18.17
2018-12-04T10:33:40.492Z,18.17
2018-12-04T10:34:41.036Z,18.19
2018-12-04T10:35:40.537Z,18.2
2018-12-04T10:36:40.691Z,18.22
2018-12-04T10:37:40.475Z,18.22
2018-12-04T10:38:40.552Z,18.23
2018-12-04T10:39:40.708Z,18.23
2018-12-04T10:40:40.481Z,18.23
2018-12-04T10:41:40.801Z,18.23
2018-12-04T10:42:40.470Z,18.25
2018-12-04T10:43:41.147Z,18.25
2018-12-04T10:44:40.734Z,18.26
2018-12-04T10:45:40.946Z,18.23
2018-12-04T10:46:41.144Z,18.23
2018-12-04T10:47:40.622Z,18.24
2018-12-04T10:48:40.951Z,18.23
2018-12-04T10:49:40.704Z,18.23
2018-12-04T10:50:41.008Z,18.23
2018-12-04T10:51:40.385Z,18.23
2018-12-04T10:52:41.169Z,18.23
2018-12-04T10:53:40.467Z,18.23
2018-12-04T10:54:41.018Z,18.22
2018-12-04T10:55:40.450Z,18.23
2018-12-04T10:56:40.808Z,18.22
2018-12-04T10:57:40.925Z,18.22
2018-12-04T10:58:40.578Z,18.22
2018-12-04T10:59:40.711Z,18.22
2018-12-04T11:00:40.962Z,18.22
2018-12-04T11:01:41.094Z,18.22
2018-12-04T11:02:40.852Z,18.21
2018-12-04T11:03:41.009Z,18.21
2018-12-04T11:04:40.767Z,18.22
2018-12-04T11:05:40.403Z,18.22
2018-12-04T11:06:40.722Z,18.22
2018-12-04T11:07:40.599Z,18.22
2018-12-04T11:08:40.595Z,18.21
2018-12-04T11:09:40.691Z,18.22
2018-12-04T11:10:40.566Z,18.22
2018-12-04T11:11:40.429Z,18.22
2018-12-04T11:12:40.948Z,18.21
2018-12-04T11:13:40.390Z,18.22
2018-12-04T11:14:40.409Z,18.21
2018-12-04T11:15:40.815Z,18.21
2018-12-04T11:16:40.566Z,18.21
2018-12-04T11:17:41.389Z,18.21
2018-12-04T11:18:40.870Z,18.21
2018-12-04T11:19:41.075Z,18.21
2018-12-04T11:20:40.836Z,18.22
2018-12-04T11:21:40.685Z,18.21
2018-12-04T11:22:40.423Z,18.21
2018-12-04T11:23:40.505Z,18.21
2018-12-04T11:24:41.080Z,18.21
2018-12-04T11:25:40.499Z,18.2
2018-12-04T11:26:40.827Z,18.21
2018-12-04T11:27:40.462Z,18.2
2018-12-04T11:28:41.338Z,18.2
2018-12-04T11:29:40.543Z,18.2
2018-12-04T11:30:40.758Z,18.21
2018-12-04T11:31:40.718Z,18.2
2018-12-04T11:32:40.985Z,18.2
2018-12-04T11:33:40.578Z,18.2
2018-12-04T11:34:40.777Z,18.2
2018-12-04T11:35:40.804Z,18.2
2018-12-04T11:36:40.864Z,18.19
2018-12-04T11:37:40.405Z,18.2
2018-12-04T11:38:41.053Z,18.19
2018-12-04T11:39:40.838Z,18.19
2018-12-04T11:40:41.003Z,18.18
2018-12-04T11:41:40.620Z,18.19
2018-12-04T11:42:40.755Z,18.18
2018-12-04T11:43:40.563Z,18.18
2018-12-04T11:44:40.802Z,18.2
2018-12-04T11:45:40.401Z,18.2
2018-12-04T11:46:40.851Z,18.2
2018-12-04T11:47:40.954Z,18.2
2018-12-04T11:48:40.908Z,18.2
2018-12-04T11:49:40.691Z,18.2
2018-12-04T11:50:41.211Z,18.2
2018-12-04T11:51:40.577Z,18.2
2018-12-04T11:52:40.529Z,18.2
2018-12-04T11:53:40.597Z,18.2
2018-12-04T11:54:40.380Z,18.19
2018-12-04T11:55:41.224Z,18.2
2018-12-04T11:56:40.884Z,18.2
2018-12-04T11:57:40.516Z,18.19
2018-12-04T11:58:40.951Z,18.2
2018-12-04T11:59:41.381Z,18.2
2018-12-04T12:00:40.674Z,18.2
2018-12-04T12:01:40.563Z,18.2
2018-12-04T12:02:40.479Z,18.21
2018-12-04T12:03:40.772Z,18.21
2018-12-04T12:04:40.930Z,18.21
2018-12-04T12:05:40.611Z,18.21
2018-12-04T12:06:40.824Z,18.21
2018-12-04T12:07:40.918Z,18.2
2018-12-04T12:08:40.828Z,18.21
2018-12-04T12:09:40.762Z,18.2
2018-12-04T12:10:40.878Z,18.21
2018-12-04T12:11:40.785Z,18.21
2018-12-04T12:12:41.113Z,18.21
2018-12-04T12:13:40.512Z,18.21
2018-12-04T12:14:40.673Z,18.22
2018-12-04T12:15:40.522Z,18.21
2018-12-04T12:16:40.488Z,18.21
2018-12-04T12:17:40.900Z,18.21
2018-12-04T12:18:40.373Z,18.21
2018-12-04T12:19:40.845Z,18.2
2018-12-04T12:20:41.235Z,18.2
2018-12-04T12:21:40.650Z,18.21
2018-12-04T12:22:40.715Z,18.2
2018-12-04T12:23:40.562Z,18.2
2018-12-04T12:24:40.837Z,18.21
2018-12-04T12:25:40.964Z,18.21
2018-12-04T12:26:40.538Z,18.21
2018-12-04T12:27:40.441Z,18.21
2018-12-04T12:28:40.669Z,18.21
2018-12-04T12:29:40.564Z,18.21
2018-12-04T12:30:40.714Z,18.21
2018-12-04T12:31:40.588Z,18.21
2018-12-04T12:32:40.549Z,18.2
2018-12-04T12:33:40.946Z,18.2
2018-12-04T12:34:40.715Z,18.2
2018-12-04T12:35:40.835Z,18.2
2018-12-04T12:36:40.490Z,18.2
2018-12-04T12:37:40.955Z,18.19
2018-12-04T12:38:40.328Z,18.2
2018-12-04T12:39:41.448Z,18.2
2018-12-04T12:40:40.769Z,18.2
2018-12-04T12:41:40.890Z,18.21
2018-12-04T12:42:40.446Z,18.21
2018-12-04T12:43:40.832Z,18.21
2018-12-04T12:44:41.110Z,18.21
2018-12-04T12:45:40.373Z,18.21
2018-12-04T12:46:40.524Z,18.21
2018-12-04T12:47:40.543Z,18.21
2018-12-04T12:48:40.850Z,18.21
2018-12-04T12:49:40.811Z,18.21
2018-12-04T12:50:40.945Z,18.21
2018-12-04T12:51:40.523Z,18.21
2018-12-04T12:52:40.531Z,18.21
2018-12-04T12:53:40.737Z,18.21
2018-12-04T12:54:41.065Z,18.2
2018-12-04T12:55:40.413Z,18.21